createdAt,value
2023-01-21T00:03:32.428Z,70.77
2023-01-21T00:08:29.024Z,70.79
2023-01-21T00:13:25.806Z,72.37
2023-01-21T00:18:23.049Z,73.16
2023-01-21T00:23:19.686Z,73.64
2023-01-21T00:28:16.268Z,74.09
2023-01-21T00:33:13.074Z,74.32
2023-01-21T00:38:10.357Z,74.78
2023-01-21T00:43:07.097Z,74.58
2023-01-21T00:48:03.941Z,74.37
2023-01-21T00:53:00.447Z,73.14
2023-01-21T00:57:57.777Z,73.39
2023-01-21T01:02:54.777Z,72.67
2023-01-21T01:07:51.416Z,73.18
2023-01-21T01:12:47.931Z,73.35
2023-01-21T01:17:45.255Z,73.79
2023-01-21T01:22:41.891Z,73.92
2023-01-21T01:27:38.431Z,73.83
2023-01-21T01:32:35.118Z,74.82
2023-01-21T01:37:32.436Z,75.83
2023-01-21T01:42:29.139Z,76.13
2023-01-21T01:47:29.714Z,75.56
2023-01-21T01:52:27.265Z,75.10
2023-01-21T01:57:27.465Z,75.65
2023-01-21T02:02:24.050Z,75.77
2023-01-21T02:07:22.553Z,74.47
2023-01-21T02:12:19.222Z,74.80
2023-01-21T02:17:25.110Z,72.87
2023-01-21T02:22:26.191Z,71.35
2023-01-21T02:27:40.746Z,70.85
2023-01-21T02:33:08.954Z,71.43
2023-01-21T02:38:12.271Z,71.53
2023-01-21T02:43:12.187Z,72.50
2023-01-21T02:48:11.846Z,72.74
2023-01-21T02:53:23.034Z,72.14
2023-01-21T02:58:22.423Z,71.60
2023-01-21T03:03:27.902Z,71.20
2023-01-21T03:08:29.869Z,71.35
2023-01-21T03:13:48.862Z,71.22
2023-01-21T03:18:50.876Z,72.68
2023-01-21T03:23:50.854Z,73.72
2023-01-21T03:28:50.835Z,71.94
2023-01-21T03:33:56.453Z,71.18
2023-01-21T03:38:55.875Z,71.58
2023-01-21T03:43:52.563Z,70.75
2023-01-21T03:48:52.064Z,69.95
2023-01-21T03:53:51.727Z,69.78
2023-01-21T03:58:48.904Z,69.14
2023-01-21T04:03:45.461Z,68.50
2023-01-21T04:08:42.091Z,69.42
2023-01-21T04:13:38.951Z,68.91
2023-01-21T04:18:36.298Z,69.77
2023-01-21T04:23:32.905Z,69.02
2023-01-21T04:28:29.577Z,68.66
2023-01-21T04:33:26.293Z,68.39
2023-01-21T04:38:23.695Z,68.39
2023-01-21T04:43:20.412Z,69.23
2023-01-21T04:48:17.029Z,69.22
2023-01-21T04:53:13.835Z,67.28
2023-01-21T04:58:11.148Z,68.43
2023-01-21T05:03:07.808Z,66.46
2023-01-21T05:08:04.781Z,66.22
2023-01-21T05:13:01.377Z,68.10
2023-01-21T05:17:59.892Z,67.00
2023-01-21T05:22:57.259Z,65.04
2023-01-21T05:27:54.564Z,66.32
2023-01-21T05:32:51.845Z,67.39
2023-01-21T05:37:49.279Z,65.06
2023-01-21T05:42:46.252Z,65.08
2023-01-21T05:47:42.941Z,67.58
2023-01-21T05:52:40.179Z,66.30
2023-01-21T05:57:37.683Z,65.41
2023-01-21T06:02:34.872Z,64.35
2023-01-21T06:07:31.779Z,61.51
2023-01-21T06:12:28.532Z,61.30
2023-01-21T06:17:26.132Z,60.81
2023-01-21T06:22:22.804Z,59.82
2023-01-21T06:27:19.560Z,61.10
2023-01-21T06:32:16.264Z,63.50
2023-01-21T06:37:15.876Z,63.79
2023-01-21T06:42:12.680Z,63.24
2023-01-21T06:47:09.348Z,61.99
2023-01-21T06:52:06.583Z,60.53
2023-01-21T06:57:03.845Z,60.71
2023-01-21T07:02:00.911Z,58.90
2023-01-21T07:06:57.585Z,58.73
2023-01-21T07:11:54.909Z,58.71
2023-01-21T07:16:53.042Z,58.38
2023-01-21T07:21:49.784Z,58.16
2023-01-21T07:26:46.851Z,58.38
2023-01-21T07:31:43.746Z,57.99
2023-01-21T07:36:41.280Z,58.71
2023-01-21T07:41:37.746Z,58.31
2023-01-21T07:46:39.622Z,59.55
2023-01-21T07:51:37.633Z,60.30
2023-01-21T07:56:35.153Z,61.49
2023-01-21T08:01:32.218Z,65.36
2023-01-21T08:06:28.906Z,68.61
2023-01-21T08:11:25.566Z,69.34
2023-01-21T08:16:22.883Z,68.81
2023-01-21T08:21:20.357Z,66.05
2023-01-21T08:26:17.016Z,65.80
2023-01-21T08:31:14.260Z,65.04
2023-01-21T08:36:11.690Z,67.05
2023-01-21T08:41:08.348Z,67.37
2023-01-21T08:46:05.386Z,68.64
2023-01-21T08:51:07.829Z,67.87
2023-01-21T08:56:11.378Z,68.06
2023-01-21T09:01:08.936Z,67.64
2023-01-21T09:06:05.958Z,68.09
2023-01-21T09:11:03.636Z,67.87
2023-01-21T09:16:00.993Z,67.68
2023-01-21T09:21:00.642Z,67.44
2023-01-21T09:26:01.450Z,67.86
2023-01-21T09:30:58.569Z,68.41
2023-01-21T09:35:56.348Z,69.72
2023-01-21T09:40:53.583Z,70.88
2023-01-21T09:45:51.446Z,69.97
2023-01-21T09:50:50.216Z,71.16
2023-01-21T09:55:49.281Z,70.54
2023-01-21T10:00:49.533Z,71.35
2023-01-21T10:06:01.915Z,72.47
2023-01-21T10:11:07.515Z,73.39
2023-01-21T10:16:08.446Z,73.76
2023-01-21T10:21:08.173Z,72.66
2023-01-21T10:26:07.618Z,72.84
2023-01-21T10:31:07.611Z,71.81
2023-01-21T10:36:15.531Z,73.88
2023-01-21T10:41:21.962Z,73.82
2023-01-21T10:46:23.859Z,73.45
2023-01-21T10:51:24.859Z,73.41
2023-01-21T10:56:30.896Z,73.60
2023-01-21T11:01:29.696Z,73.87
2023-01-21T11:06:29.728Z,74.07
2023-01-21T11:11:28.202Z,74.93
2023-01-21T11:16:35.408Z,73.22
2023-01-21T11:21:32.213Z,72.90
2023-01-21T11:26:30.605Z,73.31
2023-01-21T11:31:28.885Z,72.58
2023-01-21T11:36:25.674Z,72.25
2023-01-21T11:41:22.593Z,71.63
2023-01-21T11:46:26.193Z,71.45
2023-01-21T11:51:23.176Z,71.75
2023-01-21T11:56:20.276Z,72.03
2023-01-21T12:01:20.323Z,71.36
2023-01-21T12:06:19.717Z,71.72
2023-01-21T12:11:19.137Z,73.15
2023-01-21T12:16:27.056Z,73.25
2023-01-21T12:21:29.269Z,73.57
2023-01-21T12:26:36.059Z,73.32
2023-01-21T12:31:36.123Z,73.21
2023-01-21T12:36:38.043Z,73.73
2023-01-21T12:41:35.049Z,74.83
2023-01-21T12:46:35.120Z,75.01
2023-01-21T12:51:34.264Z,73.77
2023-01-21T12:56:36.199Z,73.45
2023-01-21T13:01:41.251Z,73.53
2023-01-21T13:06:53.692Z,75.65
2023-01-21T13:11:53.560Z,75.02
2023-01-21T13:16:52.661Z,74.77
2023-01-21T13:21:53.618Z,75.25
2023-01-21T13:27:04.066Z,74.10
2023-01-21T13:32:14.137Z,73.57
2023-01-21T13:37:18.041Z,72.86
2023-01-21T13:42:27.456Z,72.35
2023-01-21T13:47:36.050Z,72.73
2023-01-21T13:52:39.699Z,72.70
2023-01-21T13:57:51.164Z,72.73
2023-01-21T14:02:51.229Z,72.69
2023-01-21T14:07:50.449Z,72.01
2023-01-21T14:13:03.483Z,72.48
2023-01-21T14:18:09.021Z,72.12
2023-01-21T14:23:23.109Z,71.78
2023-01-21T14:28:22.359Z,71.69
2023-01-21T14:33:21.755Z,72.03
2023-01-21T14:38:24.168Z,72.17
2023-01-21T14:43:36.040Z,72.16
2023-01-21T14:48:33.948Z,71.75
2023-01-21T14:53:30.731Z,72.03
2023-01-21T14:58:27.708Z,71.73
2023-01-21T15:03:26.935Z,71.88
2023-01-21T15:08:26.250Z,71.98
2023-01-21T15:13:28.928Z,72.06
2023-01-21T15:18:35.386Z,72.02
2023-01-21T15:23:37.174Z,72.11
2023-01-21T15:28:39.719Z,72.12
2023-01-21T15:33:49.930Z,72.23
2023-01-21T15:38:48.064Z,72.32
2023-01-21T15:43:51.441Z,72.41
2023-01-21T15:48:56.783Z,72.86
2023-01-21T15:54:03.734Z,73.49
2023-01-21T15:59:06.987Z,73.76
2023-01-21T16:04:12.455Z,73.27
2023-01-21T16:09:11.958Z,72.75
2023-01-21T16:14:15.432Z,72.68
2023-01-21T16:19:13.681Z,72.82
2023-01-21T16:24:13.197Z,72.65
2023-01-21T16:29:12.975Z,73.87
2023-01-21T16:34:09.683Z,77.21
2023-01-21T16:39:06.666Z,77.55
2023-01-21T16:44:04.949Z,77.08
2023-01-21T16:49:04.103Z,77.21
2023-01-21T16:54:19.591Z,76.85
2023-01-21T16:59:20.198Z,76.88
2023-01-21T17:04:16.867Z,76.05
2023-01-21T17:09:22.073Z,76.51
2023-01-21T17:14:21.820Z,75.79
2023-01-21T17:19:22.686Z,75.25
2023-01-21T17:24:21.059Z,75.11
2023-01-21T17:29:18.986Z,74.83
2023-01-21T17:34:20.950Z,74.56
2023-01-21T17:39:32.643Z,74.59
2023-01-21T17:44:29.388Z,74.79
2023-01-21T17:49:26.881Z,74.36
2023-01-21T17:54:25.489Z,74.27
2023-01-21T17:59:37.687Z,74.66
2023-01-21T18:04:35.317Z,74.54
2023-01-21T18:09:34.686Z,74.47
2023-01-21T18:14:32.558Z,74.83
2023-01-21T18:19:33.730Z,75.33
2023-01-21T18:24:32.730Z,75.49
2023-01-21T18:29:30.532Z,75.42
2023-01-21T18:34:28.515Z,75.72
2023-01-21T18:39:25.503Z,75.65
2023-01-21T18:44:23.135Z,75.79
2023-01-21T18:49:20.139Z,75.55
2023-01-21T18:54:17.628Z,75.33
2023-01-21T18:59:15.500Z,75.15
2023-01-21T19:04:14.491Z,75.07
2023-01-21T19:09:19.064Z,75.05
2023-01-21T19:14:15.756Z,74.75
2023-01-21T19:19:13.836Z,74.94
2023-01-21T19:24:12.257Z,75.16
2023-01-21T19:29:13.299Z,74.72
2023-01-21T19:34:10.275Z,74.82
2023-01-21T19:39:13.487Z,74.35
2023-01-21T19:44:10.148Z,73.93
2023-01-21T19:49:13.270Z,73.81
2023-01-21T19:54:12.779Z,73.82
2023-01-21T19:59:12.694Z,73.59
2023-01-21T20:04:10.470Z,73.83
2023-01-21T20:09:11.344Z,74.22
2023-01-21T20:14:08.706Z,74.28
2023-01-21T20:19:06.155Z,74.59
2023-01-21T20:24:02.889Z,74.49
2023-01-21T20:29:01.973Z,74.87
2023-01-21T20:33:59.463Z,74.84
2023-01-21T20:38:56.307Z,75.07
2023-01-21T20:43:53.077Z,74.78
2023-01-21T20:48:51.211Z,74.20
2023-01-21T20:53:48.741Z,73.80
2023-01-21T20:58:47.312Z,73.16
2023-01-21T21:03:44.560Z,73.00
2023-01-21T21:08:41.776Z,73.76
2023-01-21T21:13:38.988Z,74.19
2023-01-21T21:18:35.659Z,72.79
2023-01-21T21:23:33.976Z,72.05
2023-01-21T21:28:34.867Z,71.41
2023-01-21T21:33:41.686Z,71.74
2023-01-21T21:38:38.484Z,72.47
2023-01-21T21:43:38.625Z,73.07
2023-01-21T21:48:37.964Z,73.78
2023-01-21T21:53:35.373Z,74.45
2023-01-21T21:58:32.206Z,74.75
2023-01-21T22:03:28.733Z,73.25
2023-01-21T22:08:28.743Z,71.44
2023-01-21T22:13:25.965Z,68.65
2023-01-21T22:18:23.021Z,66.41
2023-01-21T22:23:19.632Z,65.19
2023-01-21T22:28:16.346Z,65.43
2023-01-21T22:33:14.057Z,64.50
2023-01-21T22:38:10.616Z,63.73
2023-01-21T22:43:07.203Z,67.20
2023-01-21T22:48:05.849Z,71.48
2023-01-21T22:53:04.194Z,72.73
2023-01-21T22:58:00.893Z,73.69
2023-01-21T23:02:58.364Z,72.35
2023-01-21T23:07:55.117Z,72.55
2023-01-21T23:12:52.447Z,74.65
2023-01-21T23:17:49.087Z,73.94
2023-01-21T23:22:45.849Z,74.44
2023-01-21T23:27:42.392Z,75.67
2023-01-21T23:32:39.649Z,72.14
2023-01-21T23:37:37.194Z,75.22
2023-01-21T23:42:34.230Z,77.08
2023-01-21T23:47:31.041Z,77.19
2023-01-21T23:52:28.349Z,77.39
2023-01-21T23:57:25.213Z,76.96
